Pointe Du Bois, Canada
Current Conditions -  °F | °C
As of 10:00 AM on Thursday 18 Dec 2014 (Local Time) from CYQK Reporting Station
Scattered Clouds Scattered Clouds  
Wind Chill: -5°   Ceiling: Unl
Heat Index:   Visibility: 15mi
Dew Point:   Wind: 7mph
Humidity: 79%   Direction: 160°SSE
Pressure: 30.25"   Gusts: NA
Location:  50.3°N, 95.55°W
Report Text: CYQK 181600Z 16006KT 15SM SCT230 M14/M17 A3025 RMK CI4 SLP281
Loading
Personal Weather Stations






























Interactive Weather Map New forecast layout! Learn more

10-Day Weather Forecast

Advertisements
Track Severe Weather on mobile